sensor_id;sensor_type;location;lat;lon;timestamp;P1;durP1;ratioP1;P2;durP2;ratioP2
40757;SDS011;26462;47.384;19.218;2023-02-28T00:00:37;13.32;;;4.95;;
40757;SDS011;26462;47.384;19.218;2023-02-28T00:03:04;16.33;;;5.55;;
40757;SDS011;26462;47.384;19.218;2023-02-28T00:05:32;11.25;;;4.97;;
40757;SDS011;26462;47.384;19.218;2023-02-28T00:07:59;16.00;;;5.78;;
40757;SDS011;26462;47.384;19.218;2023-02-28T00:10:28;13.70;;;4.90;;
40757;SDS011;26462;47.384;19.218;2023-02-28T00:12:58;12.45;;;5.10;;
40757;SDS011;26462;47.384;19.218;2023-02-28T00:15:27;15.05;;;5.03;;
40757;SDS011;26462;47.384;19.218;2023-02-28T00:17:55;10.68;;;4.55;;
40757;SDS011;26462;47.384;19.218;2023-02-28T00:20:22;13.02;;;5.15;;
40757;SDS011;26462;47.384;19.218;2023-02-28T00:22:50;12.85;;;5.05;;
40757;SDS011;26462;47.384;19.218;2023-02-28T00:25:21;14.05;;;5.28;;
40757;SDS011;26462;47.384;19.218;2023-02-28T00:27:50;16.60;;;6.38;;
40757;SDS011;26462;47.384;19.218;2023-02-28T00:30:19;16.00;;;5.80;;
40757;SDS011;26462;47.384;19.218;2023-02-28T00:32:48;13.45;;;5.93;;
40757;SDS011;26462;47.384;19.218;2023-02-28T00:35:16;15.52;;;5.60;;
40757;SDS011;26462;47.384;19.218;2023-02-28T00:37:43;14.30;;;5.25;;
40757;SDS011;26462;47.384;19.218;2023-02-28T00:40:10;15.00;;;5.85;;
40757;SDS011;26462;47.384;19.218;2023-02-28T00:42:39;18.20;;;6.35;;
40757;SDS011;26462;47.384;19.218;2023-02-28T00:45:07;19.10;;;6.40;;
40757;SDS011;26462;47.384;19.218;2023-02-28T00:47:36;17.73;;;7.18;;
40757;SDS011;26462;47.384;19.218;2023-02-28T00:50:04;13.75;;;5.53;;
40757;SDS011;26462;47.384;19.218;2023-02-28T00:52:32;17.58;;;5.65;;
40757;SDS011;26462;47.384;19.218;2023-02-28T00:54:59;16.52;;;6.60;;
40757;SDS011;26462;47.384;19.218;2023-02-28T00:57:26;20.00;;;7.13;;
40757;SDS011;26462;47.384;19.218;2023-02-28T00:59:53;13.77;;;6.00;;
40757;SDS011;26462;47.384;19.218;2023-02-28T01:02:21;17.75;;;6.15;;
40757;SDS011;26462;47.384;19.218;2023-02-28T01:04:51;14.48;;;5.85;;
40757;SDS011;26462;47.384;19.218;2023-02-28T01:07:18;18.92;;;6.80;;
40757;SDS011;26462;47.384;19.218;2023-02-28T01:09:46;16.05;;;5.60;;
40757;SDS011;26462;47.384;19.218;2023-02-28T01:12:13;16.35;;;5.85;;
40757;SDS011;26462;47.384;19.218;2023-02-28T01:14:40;16.80;;;6.70;;
40757;SDS011;26462;47.384;19.218;2023-02-28T01:17:08;14.77;;;6.32;;
40757;SDS011;26462;47.384;19.218;2023-02-28T01:19:35;19.58;;;7.57;;
40757;SDS011;26462;47.384;19.218;2023-02-28T01:22:03;17.00;;;7.50;;
40757;SDS011;26462;47.384;19.218;2023-02-28T01:24:31;19.00;;;6.35;;
40757;SDS011;26462;47.384;19.218;2023-02-28T01:27:00;18.75;;;6.68;;
40757;SDS011;26462;47.384;19.218;2023-02-28T01:29:27;13.35;;;5.55;;
40757;SDS011;26462;47.384;19.218;2023-02-28T01:31:54;14.85;;;6.13;;
40757;SDS011;26462;47.384;19.218;2023-02-28T01:34:21;19.77;;;5.97;;
40757;SDS011;26462;47.384;19.218;2023-02-28T01:36:50;14.05;;;6.25;;
40757;SDS011;26462;47.384;19.218;2023-02-28T01:39:17;14.48;;;5.35;;
40757;SDS011;26462;47.384;19.218;2023-02-28T01:41:45;17.95;;;6.57;;
40757;SDS011;26462;47.384;19.218;2023-02-28T01:47:17;26.92;;;7.00;;
40757;SDS011;26462;47.384;19.218;2023-02-28T01:49:44;23.83;;;8.15;;
40757;SDS011;26462;47.384;19.218;2023-02-28T01:52:12;24.23;;;8.65;;
40757;SDS011;26462;47.384;19.218;2023-02-28T01:54:45;24.77;;;7.22;;
40757;SDS011;26462;47.384;19.218;2023-02-28T01:57:18;20.70;;;7.40;;
40757;SDS011;26462;47.384;19.218;2023-02-28T01:59:50;22.27;;;7.85;;
40757;SDS011;26462;47.384;19.218;2023-02-28T02:02:25;23.35;;;7.68;;
40757;SDS011;26462;47.384;19.218;2023-02-28T02:05:04;18.50;;;7.45;;
40757;SDS011;26462;47.384;19.218;2023-02-28T02:07:42;25.98;;;8.32;;
40757;SDS011;26462;47.384;19.218;2023-02-28T02:10:16;20.05;;;6.53;;
40757;SDS011;26462;47.384;19.218;2023-02-28T02:18:50;16.50;;;6.15;;
40757;SDS011;26462;47.384;19.218;2023-02-28T02:27:20;12.65;;;6.28;;
40757;SDS011;26462;47.384;19.218;2023-02-28T02:38:39;22.02;;;7.13;;
40757;SDS011;26462;47.384;19.218;2023-02-28T02:44:22;16.42;;;6.35;;
40757;SDS011;26462;47.384;19.218;2023-02-28T02:46:58;15.50;;;5.80;;
40757;SDS011;26462;47.384;19.218;2023-02-28T02:49:35;17.88;;;7.13;;
40757;SDS011;26462;47.384;19.218;2023-02-28T02:52:08;13.50;;;5.97;;
40757;SDS011;26462;47.384;19.218;2023-02-28T02:54:40;12.73;;;6.00;;
40757;SDS011;26462;47.384;19.218;2023-02-28T02:57:13;15.18;;;6.38;;
40757;SDS011;26462;47.384;19.218;2023-02-28T02:59:50;15.80;;;6.75;;
40757;SDS011;26462;47.384;19.218;2023-02-28T03:02:20;16.52;;;8.05;;
40757;SDS011;26462;47.384;19.218;2023-02-28T03:04:50;17.05;;;7.97;;
40757;SDS011;26462;47.384;19.218;2023-02-28T03:07:20;15.55;;;6.80;;
40757;SDS011;26462;47.384;19.218;2023-02-28T03:09:51;18.27;;;7.32;;
40757;SDS011;26462;47.384;19.218;2023-02-28T03:12:20;17.83;;;6.83;;
40757;SDS011;26462;47.384;19.218;2023-02-28T03:15:03;16.23;;;6.07;;
40757;SDS011;26462;47.384;19.218;2023-02-28T03:23:23;16.15;;;7.15;;
40757;SDS011;26462;47.384;19.218;2023-02-28T03:26:02;17.05;;;5.80;;
40757;SDS011;26462;47.384;19.218;2023-02-28T03:28:40;20.55;;;6.90;;
40757;SDS011;26462;47.384;19.218;2023-02-28T03:34:25;18.05;;;6.13;;
40757;SDS011;26462;47.384;19.218;2023-02-28T03:37:01;15.30;;;6.05;;
40757;SDS011;26462;47.384;19.218;2023-02-28T03:39:36;15.13;;;5.82;;
40757;SDS011;26462;47.384;19.218;2023-02-28T03:42:20;15.88;;;6.07;;
40757;SDS011;26462;47.384;19.218;2023-02-28T03:45:04;15.25;;;5.88;;
40757;SDS011;26462;47.384;19.218;2023-02-28T03:47:46;15.00;;;6.00;;
40757;SDS011;26462;47.384;19.218;2023-02-28T03:50:26;14.45;;;5.90;;
40757;SDS011;26462;47.384;19.218;2023-02-28T03:52:58;15.80;;;5.70;;
40757;SDS011;26462;47.384;19.218;2023-02-28T03:55:32;25.63;;;7.45;;
40757;SDS011;26462;47.384;19.218;2023-02-28T03:58:09;21.02;;;7.78;;
40757;SDS011;26462;47.384;19.218;2023-02-28T04:03:18;21.42;;;6.40;;
40757;SDS011;26462;47.384;19.218;2023-02-28T04:05:54;20.75;;;6.88;;
40757;SDS011;26462;47.384;19.218;2023-02-28T04:08:23;22.08;;;7.00;;
40757;SDS011;26462;47.384;19.218;2023-02-28T04:13:41;20.17;;;6.45;;
40757;SDS011;26462;47.384;19.218;2023-02-28T04:16:08;20.05;;;6.47;;
40757;SDS011;26462;47.384;19.218;2023-02-28T04:18:57;17.48;;;6.60;;
40757;SDS011;26462;47.384;19.218;2023-02-28T04:21:28;19.40;;;6.30;;
40757;SDS011;26462;47.384;19.218;2023-02-28T04:23:57;18.52;;;6.85;;
40757;SDS011;26462;47.384;19.218;2023-02-28T04:26:30;14.98;;;6.30;;
40757;SDS011;26462;47.384;19.218;2023-02-28T04:28:59;17.85;;;5.55;;
40757;SDS011;26462;47.384;19.218;2023-02-28T04:31:27;20.42;;;6.45;;
40757;SDS011;26462;47.384;19.218;2023-02-28T04:33:55;15.50;;;5.15;;
40757;SDS011;26462;47.384;19.218;2023-02-28T04:36:22;12.75;;;5.38;;
40757;SDS011;26462;47.384;19.218;2023-02-28T04:38:49;18.27;;;6.22;;
40757;SDS011;26462;47.384;19.218;2023-02-28T04:41:18;16.67;;;5.45;;
40757;SDS011;26462;47.384;19.218;2023-02-28T04:43:45;14.38;;;5.35;;
40757;SDS011;26462;47.384;19.218;2023-02-28T04:46:12;15.77;;;5.88;;
40757;SDS011;26462;47.384;19.218;2023-02-28T04:48:40;11.73;;;4.93;;
40757;SDS011;26462;47.384;19.218;2023-02-28T04:51:08;11.57;;;6.00;;
40757;SDS011;26462;47.384;19.218;2023-02-28T04:53:37;12.40;;;5.25;;
40757;SDS011;26462;47.384;19.218;2023-02-28T04:56:06;12.27;;;4.60;;
40757;SDS011;26462;47.384;19.218;2023-02-28T04:58:34;11.32;;;4.43;;
40757;SDS011;26462;47.384;19.218;2023-02-28T05:01:02;11.07;;;4.80;;
40757;SDS011;26462;47.384;19.218;2023-02-28T05:03:50;16.27;;;5.38;;
40757;SDS011;26462;47.384;19.218;2023-02-28T05:06:18;17.35;;;5.88;;
40757;SDS011;26462;47.384;19.218;2023-02-28T05:08:47;13.55;;;5.25;;
40757;SDS011;26462;47.384;19.218;2023-02-28T05:11:19;12.18;;;4.95;;
40757;SDS011;26462;47.384;19.218;2023-02-28T05:13:48;14.25;;;5.40;;
40757;SDS011;26462;47.384;19.218;2023-02-28T05:16:16;15.70;;;6.20;;
40757;SDS011;26462;47.384;19.218;2023-02-28T05:18:44;17.15;;;5.30;;
40757;SDS011;26462;47.384;19.218;2023-02-28T05:21:31;18.08;;;6.30;;
40757;SDS011;26462;47.384;19.218;2023-02-28T05:24:00;14.32;;;5.80;;
40757;SDS011;26462;47.384;19.218;2023-02-28T05:26:29;17.23;;;6.40;;
40757;SDS011;26462;47.384;19.218;2023-02-28T05:29:00;14.20;;;5.47;;
40757;SDS011;26462;47.384;19.218;2023-02-28T05:31:27;19.70;;;6.28;;
40757;SDS011;26462;47.384;19.218;2023-02-28T05:33:55;14.07;;;5.65;;
40757;SDS011;26462;47.384;19.218;2023-02-28T05:36:22;14.40;;;6.15;;
40757;SDS011;26462;47.384;19.218;2023-02-28T05:38:52;17.55;;;6.18;;
40757;SDS011;26462;47.384;19.218;2023-02-28T05:41:19;14.77;;;5.90;;
40757;SDS011;26462;47.384;19.218;2023-02-28T05:43:47;14.07;;;5.95;;
40757;SDS011;26462;47.384;19.218;2023-02-28T05:46:15;13.25;;;5.93;;
40757;SDS011;26462;47.384;19.218;2023-02-28T05:48:42;13.48;;;5.22;;
40757;SDS011;26462;47.384;19.218;2023-02-28T05:51:12;14.32;;;6.00;;
40757;SDS011;26462;47.384;19.218;2023-02-28T05:53:39;20.38;;;9.23;;
40757;SDS011;26462;47.384;19.218;2023-02-28T05:56:06;28.25;;;9.32;;
40757;SDS011;26462;47.384;19.218;2023-02-28T05:58:33;19.13;;;8.63;;
40757;SDS011;26462;47.384;19.218;2023-02-28T06:01:19;20.00;;;7.85;;
40757;SDS011;26462;47.384;19.218;2023-02-28T06:04:07;17.40;;;7.80;;
40757;SDS011;26462;47.384;19.218;2023-02-28T06:06:51;16.58;;;6.40;;
40757;SDS011;26462;47.384;19.218;2023-02-28T06:09:18;15.40;;;6.55;;
40757;SDS011;26462;47.384;19.218;2023-02-28T06:11:45;13.63;;;6.40;;
40757;SDS011;26462;47.384;19.218;2023-02-28T06:14:14;16.23;;;7.00;;
40757;SDS011;26462;47.384;19.218;2023-02-28T06:16:43;15.98;;;5.82;;
40757;SDS011;26462;47.384;19.218;2023-02-28T06:19:11;16.10;;;6.38;;
40757;SDS011;26462;47.384;19.218;2023-02-28T06:21:38;15.98;;;6.72;;
40757;SDS011;26462;47.384;19.218;2023-02-28T06:24:05;16.52;;;6.03;;
40757;SDS011;26462;47.384;19.218;2023-02-28T06:26:33;17.02;;;6.72;;
40757;SDS011;26462;47.384;19.218;2023-02-28T06:29:00;15.00;;;5.40;;
40757;SDS011;26462;47.384;19.218;2023-02-28T06:31:27;12.57;;;6.00;;
40757;SDS011;26462;47.384;19.218;2023-02-28T06:33:56;13.50;;;5.97;;
40757;SDS011;26462;47.384;19.218;2023-02-28T06:36:23;16.27;;;6.03;;
40757;SDS011;26462;47.384;19.218;2023-02-28T06:38:50;15.77;;;5.22;;
40757;SDS011;26462;47.384;19.218;2023-02-28T06:41:23;13.60;;;6.13;;
40757;SDS011;26462;47.384;19.218;2023-02-28T06:43:52;12.40;;;4.68;;
40757;SDS011;26462;47.384;19.218;2023-02-28T06:46:19;15.60;;;6.15;;
40757;SDS011;26462;47.384;19.218;2023-02-28T06:48:47;12.40;;;5.88;;
40757;SDS011;26462;47.384;19.218;2023-02-28T06:51:15;15.13;;;5.47;;
40757;SDS011;26462;47.384;19.218;2023-02-28T06:53:46;15.65;;;5.13;;
40757;SDS011;26462;47.384;19.218;2023-02-28T06:56:15;13.57;;;6.32;;
40757;SDS011;26462;47.384;19.218;2023-02-28T06:58:50;12.38;;;5.57;;
40757;SDS011;26462;47.384;19.218;2023-02-28T07:01:19;12.60;;;5.85;;
40757;SDS011;26462;47.384;19.218;2023-02-28T07:03:49;11.07;;;4.38;;
40757;SDS011;26462;47.384;19.218;2023-02-28T07:06:21;8.90;;;4.63;;
40757;SDS011;26462;47.384;19.218;2023-02-28T07:08:49;14.93;;;4.75;;
40757;SDS011;26462;47.384;19.218;2023-02-28T07:11:19;11.23;;;4.72;;
40757;SDS011;26462;47.384;19.218;2023-02-28T07:13:52;14.48;;;6.18;;
40757;SDS011;26462;47.384;19.218;2023-02-28T07:16:20;21.58;;;11.77;;
40757;SDS011;26462;47.384;19.218;2023-02-28T07:18:48;16.23;;;7.05;;
40757;SDS011;26462;47.384;19.218;2023-02-28T07:21:16;13.52;;;5.82;;
40757;SDS011;26462;47.384;19.218;2023-02-28T07:23:43;11.13;;;4.55;;
40757;SDS011;26462;47.384;19.218;2023-02-28T07:26:11;9.38;;;4.28;;
40757;SDS011;26462;47.384;19.218;2023-02-28T07:28:41;12.02;;;4.97;;
40757;SDS011;26462;47.384;19.218;2023-02-28T07:31:09;11.27;;;4.38;;
40757;SDS011;26462;47.384;19.218;2023-02-28T07:33:38;13.35;;;5.75;;
40757;SDS011;26462;47.384;19.218;2023-02-28T07:36:07;16.50;;;6.10;;
40757;SDS011;26462;47.384;19.218;2023-02-28T07:38:41;21.30;;;7.43;;
40757;SDS011;26462;47.384;19.218;2023-02-28T07:41:14;19.50;;;6.30;;
40757;SDS011;26462;47.384;19.218;2023-02-28T07:43:46;13.20;;;5.72;;
40757;SDS011;26462;47.384;19.218;2023-02-28T07:46:15;12.63;;;4.45;;
40757;SDS011;26462;47.384;19.218;2023-02-28T07:48:46;17.98;;;6.95;;
40757;SDS011;26462;47.384;19.218;2023-02-28T07:51:14;10.18;;;3.42;;
40757;SDS011;26462;47.384;19.218;2023-02-28T07:53:42;8.02;;;3.33;;
40757;SDS011;26462;47.384;19.218;2023-02-28T07:56:15;10.20;;;2.90;;
40757;SDS011;26462;47.384;19.218;2023-02-28T07:58:45;9.25;;;2.90;;
40757;SDS011;26462;47.384;19.218;2023-02-28T08:01:16;8.60;;;2.38;;
40757;SDS011;26462;47.384;19.218;2023-02-28T08:06:18;8.45;;;2.75;;
40757;SDS011;26462;47.384;19.218;2023-02-28T08:08:48;5.30;;;2.65;;
40757;SDS011;26462;47.384;19.218;2023-02-28T08:11:16;6.05;;;2.40;;
40757;SDS011;26462;47.384;19.218;2023-02-28T08:13:44;7.25;;;2.78;;
40757;SDS011;26462;47.384;19.218;2023-02-28T08:16:14;7.00;;;2.35;;
40757;SDS011;26462;47.384;19.218;2023-02-28T08:18:44;9.48;;;3.13;;
40757;SDS011;26462;47.384;19.218;2023-02-28T08:21:11;6.93;;;2.40;;
40757;SDS011;26462;47.384;19.218;2023-02-28T08:23:38;5.88;;;2.83;;
40757;SDS011;26462;47.384;19.218;2023-02-28T08:26:06;9.48;;;3.03;;
40757;SDS011;26462;47.384;19.218;2023-02-28T08:28:33;6.20;;;2.30;;
40757;SDS011;26462;47.384;19.218;2023-02-28T08:31:00;7.00;;;2.83;;
40757;SDS011;26462;47.384;19.218;2023-02-28T08:33:36;8.65;;;2.72;;
40757;SDS011;26462;47.384;19.218;2023-02-28T08:36:05;6.28;;;2.40;;
40757;SDS011;26462;47.384;19.218;2023-02-28T08:38:34;7.75;;;2.97;;
40757;SDS011;26462;47.384;19.218;2023-02-28T08:41:05;6.60;;;2.17;;
40757;SDS011;26462;47.384;19.218;2023-02-28T08:43:48;6.53;;;2.00;;
40757;SDS011;26462;47.384;19.218;2023-02-28T08:46:16;6.80;;;2.85;;
40757;SDS011;26462;47.384;19.218;2023-02-28T08:48:44;5.45;;;2.40;;
40757;SDS011;26462;47.384;19.218;2023-02-28T08:51:14;3.90;;;1.92;;
40757;SDS011;26462;47.384;19.218;2023-02-28T08:53:45;7.05;;;2.53;;
40757;SDS011;26462;47.384;19.218;2023-02-28T08:56:13;7.63;;;2.47;;
40757;SDS011;26462;47.384;19.218;2023-02-28T08:58:43;4.63;;;1.75;;
40757;SDS011;26462;47.384;19.218;2023-02-28T09:01:13;5.22;;;2.08;;
40757;SDS011;26462;47.384;19.218;2023-02-28T09:03:41;5.53;;;2.17;;
40757;SDS011;26462;47.384;19.218;2023-02-28T09:06:12;6.50;;;2.30;;
40757;SDS011;26462;47.384;19.218;2023-02-28T09:08:42;6.82;;;2.13;;
40757;SDS011;26462;47.384;19.218;2023-02-28T09:11:10;6.00;;;2.35;;
40757;SDS011;26462;47.384;19.218;2023-02-28T09:13:37;6.82;;;2.42;;
40757;SDS011;26462;47.384;19.218;2023-02-28T09:16:06;5.85;;;2.35;;
40757;SDS011;26462;47.384;19.218;2023-02-28T09:18:35;6.28;;;1.90;;
40757;SDS011;26462;47.384;19.218;2023-02-28T09:21:04;6.90;;;2.40;;
40757;SDS011;26462;47.384;19.218;2023-02-28T09:23:32;4.63;;;1.77;;
40757;SDS011;26462;47.384;19.218;2023-02-28T09:26:00;4.53;;;1.52;;
40757;SDS011;26462;47.384;19.218;2023-02-28T09:28:28;5.68;;;2.17;;
40757;SDS011;26462;47.384;19.218;2023-02-28T09:30:56;4.75;;;2.15;;
40757;SDS011;26462;47.384;19.218;2023-02-28T09:33:25;5.18;;;1.98;;
40757;SDS011;26462;47.384;19.218;2023-02-28T09:35:57;8.00;;;3.25;;
40757;SDS011;26462;47.384;19.218;2023-02-28T09:38:27;4.68;;;2.03;;
40757;SDS011;26462;47.384;19.218;2023-02-28T09:40:56;6.85;;;2.67;;
40757;SDS011;26462;47.384;19.218;2023-02-28T09:43:26;5.63;;;2.10;;
40757;SDS011;26462;47.384;19.218;2023-02-28T09:46:47;7.75;;;2.83;;
40757;SDS011;26462;47.384;19.218;2023-02-28T09:48:56;8.13;;;2.20;;
40757;SDS011;26462;47.384;19.218;2023-02-28T09:51:30;4.75;;;1.77;;
40757;SDS011;26462;47.384;19.218;2023-02-28T09:54:23;7.40;;;2.28;;
40757;SDS011;26462;47.384;19.218;2023-02-28T09:56:59;5.07;;;2.35;;
40757;SDS011;26462;47.384;19.218;2023-02-28T10:05:15;4.20;;;1.65;;
40757;SDS011;26462;47.384;19.218;2023-02-28T10:10:29;6.15;;;2.50;;
40757;SDS011;26462;47.384;19.218;2023-02-28T10:12:58;4.43;;;2.13;;
40757;SDS011;26462;47.384;19.218;2023-02-28T10:15:30;7.53;;;2.95;;
40757;SDS011;26462;47.384;19.218;2023-02-28T10:18:03;4.70;;;2.30;;
40757;SDS011;26462;47.384;19.218;2023-02-28T10:20:37;5.95;;;2.35;;
40757;SDS011;26462;47.384;19.218;2023-02-28T10:23:21;4.32;;;2.33;;
40757;SDS011;26462;47.384;19.218;2023-02-28T10:28:51;10.43;;;3.00;;
40757;SDS011;26462;47.384;19.218;2023-02-28T10:31:19;4.80;;;1.90;;
40757;SDS011;26462;47.384;19.218;2023-02-28T10:33:48;6.38;;;2.35;;
40757;SDS011;26462;47.384;19.218;2023-02-28T10:36:27;4.20;;;1.95;;
40757;SDS011;26462;47.384;19.218;2023-02-28T10:45:35;20.17;;;14.75;;
40757;SDS011;26462;47.384;19.218;2023-02-28T10:50:44;6.15;;;2.47;;
40757;SDS011;26462;47.384;19.218;2023-02-28T11:02:58;6.78;;;3.08;;
40757;SDS011;26462;47.384;19.218;2023-02-28T11:05:30;6.68;;;2.75;;
40757;SDS011;26462;47.384;19.218;2023-02-28T11:10:33;10.23;;;3.65;;
40757;SDS011;26462;47.384;19.218;2023-02-28T11:13:01;8.75;;;3.88;;
40757;SDS011;26462;47.384;19.218;2023-02-28T11:15:30;14.93;;;6.68;;
40757;SDS011;26462;47.384;19.218;2023-02-28T11:18:00;8.68;;;4.65;;
40757;SDS011;26462;47.384;19.218;2023-02-28T11:20:51;11.55;;;6.07;;
40757;SDS011;26462;47.384;19.218;2023-02-28T11:23:25;12.07;;;6.95;;
40757;SDS011;26462;47.384;19.218;2023-02-28T11:26:03;9.65;;;5.18;;
40757;SDS011;26462;47.384;19.218;2023-02-28T11:28:39;8.43;;;3.83;;
40757;SDS011;26462;47.384;19.218;2023-02-28T11:33:50;5.53;;;2.67;;
40757;SDS011;26462;47.384;19.218;2023-02-28T11:36:23;9.27;;;2.90;;
40757;SDS011;26462;47.384;19.218;2023-02-28T11:39:15;10.23;;;3.47;;
40757;SDS011;26462;47.384;19.218;2023-02-28T11:54:28;5.90;;;2.83;;
40757;SDS011;26462;47.384;19.218;2023-02-28T12:45:03;6.72;;;3.30;;
40757;SDS011;26462;47.384;19.218;2023-02-28T12:47:38;7.55;;;2.97;;
40757;SDS011;26462;47.384;19.218;2023-02-28T12:53:31;9.93;;;4.25;;
40757;SDS011;26462;47.384;19.218;2023-02-28T13:18:27;11.05;;;3.47;;
40757;SDS011;26462;47.384;19.218;2023-02-28T13:21:04;9.50;;;4.00;;
40757;SDS011;26462;47.384;19.218;2023-02-28T13:29:43;10.73;;;3.75;;
40757;SDS011;26462;47.384;19.218;2023-02-28T13:35:43;9.18;;;4.57;;
40757;SDS011;26462;47.384;19.218;2023-02-28T13:56:27;9.30;;;4.30;;
40757;SDS011;26462;47.384;19.218;2023-02-28T15:05:10;12.20;;;3.42;;
40757;SDS011;26462;47.384;19.218;2023-02-28T15:08:12;10.27;;;4.18;;
40757;SDS011;26462;47.384;19.218;2023-02-28T15:10:43;54.15;;;17.80;;
40757;SDS011;26462;47.384;19.218;2023-02-28T15:13:14;82.13;;;25.77;;
40757;SDS011;26462;47.384;19.218;2023-02-28T15:21:02;13.38;;;6.55;;
40757;SDS011;26462;47.384;19.218;2023-02-28T15:23:36;14.18;;;6.55;;
40757;SDS011;26462;47.384;19.218;2023-02-28T15:26:06;18.77;;;9.35;;
40757;SDS011;26462;47.384;19.218;2023-02-28T15:28:34;13.50;;;5.93;;
40757;SDS011;26462;47.384;19.218;2023-02-28T15:31:18;10.10;;;4.40;;
40757;SDS011;26462;47.384;19.218;2023-02-28T15:33:52;12.23;;;6.07;;
40757;SDS011;26462;47.384;19.218;2023-02-28T15:36:20;10.50;;;4.88;;
40757;SDS011;26462;47.384;19.218;2023-02-28T15:38:54;11.75;;;5.78;;
40757;SDS011;26462;47.384;19.218;2023-02-28T15:41:37;11.05;;;4.97;;
40757;SDS011;26462;47.384;19.218;2023-02-28T15:47:03;11.88;;;5.57;;
40757;SDS011;26462;47.384;19.218;2023-02-28T15:49:48;12.50;;;5.47;;
40757;SDS011;26462;47.384;19.218;2023-02-28T15:52:16;15.77;;;6.85;;
40757;SDS011;26462;47.384;19.218;2023-02-28T15:54:48;12.07;;;6.22;;
40757;SDS011;26462;47.384;19.218;2023-02-28T15:57:18;12.95;;;6.32;;
40757;SDS011;26462;47.384;19.218;2023-02-28T15:59:52;12.50;;;6.15;;
40757;SDS011;26462;47.384;19.218;2023-02-28T16:02:31;14.90;;;6.05;;
40757;SDS011;26462;47.384;19.218;2023-02-28T16:10:53;14.23;;;6.15;;
40757;SDS011;26462;47.384;19.218;2023-02-28T16:13:21;13.75;;;5.93;;
40757;SDS011;26462;47.384;19.218;2023-02-28T21:49:32;19.10;;;7.63;;
40757;SDS011;26462;47.384;19.218;2023-02-28T21:51:59;18.95;;;8.75;;
40757;SDS011;26462;47.384;19.218;2023-02-28T21:54:26;19.30;;;8.73;;
40757;SDS011;26462;47.384;19.218;2023-02-28T21:56:54;20.23;;;8.93;;
40757;SDS011;26462;47.384;19.218;2023-02-28T21:59:21;21.90;;;9.23;;
40757;SDS011;26462;47.384;19.218;2023-02-28T22:01:49;18.85;;;8.20;;
40757;SDS011;26462;47.384;19.218;2023-02-28T22:04:17;18.42;;;8.82;;
40757;SDS011;26462;47.384;19.218;2023-02-28T22:06:49;19.90;;;8.13;;
40757;SDS011;26462;47.384;19.218;2023-02-28T22:09:19;18.80;;;8.07;;
40757;SDS011;26462;47.384;19.218;2023-02-28T22:11:47;19.50;;;7.57;;
40757;SDS011;26462;47.384;19.218;2023-02-28T22:14:15;19.77;;;8.02;;
40757;SDS011;26462;47.384;19.218;2023-02-28T22:16:43;20.50;;;8.27;;
40757;SDS011;26462;47.384;19.218;2023-02-28T22:19:18;19.52;;;7.80;;
40757;SDS011;26462;47.384;19.218;2023-02-28T22:21:46;21.95;;;8.77;;
40757;SDS011;26462;47.384;19.218;2023-02-28T22:24:14;23.17;;;9.38;;
40757;SDS011;26462;47.384;19.218;2023-02-28T22:26:43;25.67;;;11.02;;
40757;SDS011;26462;47.384;19.218;2023-02-28T22:29:10;21.35;;;8.93;;
40757;SDS011;26462;47.384;19.218;2023-02-28T22:31:37;23.58;;;9.27;;
40757;SDS011;26462;47.384;19.218;2023-02-28T22:34:06;22.67;;;9.65;;
40757;SDS011;26462;47.384;19.218;2023-02-28T22:36:34;30.35;;;11.40;;
40757;SDS011;26462;47.384;19.218;2023-02-28T22:39:02;20.50;;;9.50;;
40757;SDS011;26462;47.384;19.218;2023-02-28T22:41:30;23.48;;;10.35;;
40757;SDS011;26462;47.384;19.218;2023-02-28T22:43:59;23.13;;;9.98;;
40757;SDS011;26462;47.384;19.218;2023-02-28T22:46:28;22.90;;;10.30;;
40757;SDS011;26462;47.384;19.218;2023-02-28T22:48:58;23.73;;;9.75;;
40757;SDS011;26462;47.384;19.218;2023-02-28T22:51:26;29.83;;;12.43;;
40757;SDS011;26462;47.384;19.218;2023-02-28T22:53:55;28.33;;;11.75;;
40757;SDS011;26462;47.384;19.218;2023-02-28T22:56:24;26.35;;;10.77;;
40757;SDS011;26462;47.384;19.218;2023-02-28T22:58:55;27.30;;;11.23;;
40757;SDS011;26462;47.384;19.218;2023-02-28T23:01:23;25.38;;;11.15;;
40757;SDS011;26462;47.384;19.218;2023-02-28T23:03:53;23.05;;;8.68;;
40757;SDS011;26462;47.384;19.218;2023-02-28T23:08:50;17.27;;;7.88;;
40757;SDS011;26462;47.384;19.218;2023-02-28T23:11:26;21.13;;;8.23;;
40757;SDS011;26462;47.384;19.218;2023-02-28T23:13:56;20.98;;;8.05;;
40757;SDS011;26462;47.384;19.218;2023-02-28T23:18:57;17.92;;;7.88;;
40757;SDS011;26462;47.384;19.218;2023-02-28T23:21:25;20.75;;;7.35;;
40757;SDS011;26462;47.384;19.218;2023-02-28T23:23:53;20.65;;;8.80;;
40757;SDS011;26462;47.384;19.218;2023-02-28T23:26:20;17.60;;;8.55;;
40757;SDS011;26462;47.384;19.218;2023-02-28T23:28:48;19.27;;;8.45;;
40757;SDS011;26462;47.384;19.218;2023-02-28T23:31:15;25.70;;;8.40;;
40757;SDS011;26462;47.384;19.218;2023-02-28T23:33:43;22.35;;;8.80;;
40757;SDS011;26462;47.384;19.218;2023-02-28T23:36:12;20.15;;;8.15;;
40757;SDS011;26462;47.384;19.218;2023-02-28T23:38:41;18.58;;;7.63;;
40757;SDS011;26462;47.384;19.218;2023-02-28T23:41:11;19.70;;;8.50;;
40757;SDS011;26462;47.384;19.218;2023-02-28T23:43:39;18.90;;;8.38;;
40757;SDS011;26462;47.384;19.218;2023-02-28T23:46:07;20.40;;;8.30;;
40757;SDS011;26462;47.384;19.218;2023-02-28T23:48:35;19.23;;;8.55;;
40757;SDS011;26462;47.384;19.218;2023-02-28T23:51:05;16.80;;;7.63;;
40757;SDS011;26462;47.384;19.218;2023-02-28T23:53:44;20.90;;;8.90;;
40757;SDS011;26462;47.384;19.218;2023-02-28T23:56:13;20.33;;;8.57;;
40757;SDS011;26462;47.384;19.218;2023-02-28T23:58:43;22.35;;;8.95;;
